Linden Pride — H3VP — position and weather

sailwx.info

Track history (hours):
 
Tides and Currents Weather Stations Pressure Air Temp Water Temp Dewpoint Dewpoint Depression Visibility Wind Speed Wind Dir Waves Ship Positions

Linden Pride

Last reported at 2016-Dec-02 18:31 UTC. Time now 2016-Dec-03 02:22 UTC.
Position N 09°14' W 079°56'.

Length 230 m; beam 36.6 m.

Type: Ship. MMSI: 356677000.

Date/timePositionNaut miles runAvg speedWind from/ knotsBaromVisibWave heightAir tempDewpointWater temp
2016-Dec-02 18:31N 09°14' W 079°56'2 1.2
2016-Dec-02 16:22N 09°16' W 079°55'0 0.5
2016-Dec-02 15:33N 09°17' W 079°55'1 1.4
2016-Dec-02 14:33N 09°18' W 079°55'6 5.9
2016-Dec-02 13:33N 09°24' W 079°55'2 1.9
2016-Dec-02 12:25N 09°23' W 079°57'0 0.0
2016-Dec-02 11:31N 09°23' W 079°57'0 0.0
2016-Dec-02 10:31N 09°23' W 079°57'0 0.0
2016-Dec-02 09:28N 09°23' W 079°57'0 0.0
2016-Dec-02 08:31N 09°23' W 079°57'0 0.0
2016-Dec-02 07:13N 09°23' W 079°57'0 0.0
2016-Dec-02 06:28N 09°23' W 079°57'0 0.0
2016-Dec-02 05:22N 09°23' W 079°57'0 0.0
2016-Dec-02 04:28N 09°23' W 079°57'0 0.1
2016-Dec-02 03:31N 09°23' W 079°57'0 0.0
2016-Dec-02 02:25N 09°23' W 079°57'0 0.0
2016-Dec-02 01:31N 09°23' W 079°57'0 0.0
2016-Dec-01 23:28N 09°23' W 079°57'0 0.0
2016-Dec-01 22:31N 09°23' W 079°57'0 0.0
2016-Dec-01 21:28N 09°23' W 079°57'0 0.1
2016-Dec-01 20:31N 09°23' W 079°57'0 0.1
2016-Dec-01 19:31N 09°23' W 079°57'0 0.0
2016-Dec-01 18:31N 09°23' W 079°57'0 0.0
2016-Dec-01 17:19N 09°23' W 079°57'0 0.0
2016-Dec-01 16:31N 09°23' W 079°57'0 0.1
2016-Dec-01 15:31N 09°23' W 079°57'0 0.1
2016-Dec-01 14:31N 09°23' W 079°57'0 0.0
2016-Dec-01 13:28N 09°23' W 079°57'0 0.0
2016-Dec-01 12:22N 09°23' W 079°57'0 0.0
2016-Dec-01 11:28N 09°23' W 079°57'0 0.0
2016-Dec-01 10:28N 09°23' W 079°57'5 4.6
2016-Dec-01 09:21N 09°28' W 079°55'  
2016-Nov-26 16:33N 29°21' W 094°45'1211.5
2016-Nov-26 15:33N 29°30' W 094°52'10 9.8
2016-Nov-26 14:33N 29°39' W 094°58'7 7.2
2016-Nov-26 13:33N 29°44' W 095°03'  
2016-Nov-24 03:27N 29°44' W 095°08'4 3.8
2016-Nov-24 02:32N 29°45' W 095°04'7 7.6
2016-Nov-24 01:33N 29°39' W 094°58'1110.9
2016-Nov-24 00:33N 29°29' W 094°52'19 4.2
2016-Nov-23 20:07N 29°20' W 094°33'17 1.0
2016-Nov-23 03:33N 29°27' W 094°51'1212.1
2016-Nov-23 02:33N 29°37' W 094°58'8 4.1
2016-Nov-23 00:33N 29°44' W 095°03'0 0.0
2016-Nov-22 23:33N 29°44' W 095°03'0 0.0
2016-Nov-22 22:21N 29°44' W 095°03'0 0.0
2016-Nov-22 20:24N 29°44' W 095°03'0 0.0
2016-Nov-22 19:33N 29°44' W 095°03'  
Track history (hours):
 
Tides and Currents Weather Stations Pressure Air Temp Water Temp Dewpoint Dewpoint Depression Visibility Wind Speed Wind Dir Waves Ship Positions

Linden Pride

Last reported at 2016-Dec-02 18:31 UTC. Time now 2016-Dec-03 02:22 UTC.
Position N 09°14' W 079°56'.

Length 230 m; beam 36.6 m.

Type: Ship. MMSI: 356677000.

Date/timePositionNaut miles runAvg speedWind from/ knotsBaromVisibWave heightAir tempDewpointWater temp
2016-Dec-02 18:31N 09°14' W 079°56'2 1.2
2016-Dec-02 16:22N 09°16' W 079°55'0 0.5
2016-Dec-02 15:33N 09°17' W 079°55'1 1.4
2016-Dec-02 14:33N 09°18' W 079°55'6 5.9
2016-Dec-02 13:33N 09°24' W 079°55'2 1.9
2016-Dec-02 12:25N 09°23' W 079°57'0 0.0
2016-Dec-02 11:31N 09°23' W 079°57'0 0.0
2016-Dec-02 10:31N 09°23' W 079°57'0 0.0
2016-Dec-02 09:28N 09°23' W 079°57'0 0.0
2016-Dec-02 08:31N 09°23' W 079°57'0 0.0
2016-Dec-02 07:13N 09°23' W 079°57'0 0.0
2016-Dec-02 06:28N 09°23' W 079°57'0 0.0
2016-Dec-02 05:22N 09°23' W 079°57'0 0.0
2016-Dec-02 04:28N 09°23' W 079°57'0 0.1
2016-Dec-02 03:31N 09°23' W 079°57'0 0.0
2016-Dec-02 02:25N 09°23' W 079°57'0 0.0
2016-Dec-02 01:31N 09°23' W 079°57'0 0.0
2016-Dec-01 23:28N 09°23' W 079°57'0 0.0
2016-Dec-01 22:31N 09°23' W 079°57'0 0.0
2016-Dec-01 21:28N 09°23' W 079°57'0 0.1
2016-Dec-01 20:31N 09°23' W 079°57'0 0.1
2016-Dec-01 19:31N 09°23' W 079°57'0 0.0
2016-Dec-01 18:31N 09°23' W 079°57'0 0.0
2016-Dec-01 17:19N 09°23' W 079°57'0 0.0
2016-Dec-01 16:31N 09°23' W 079°57'0 0.1
2016-Dec-01 15:31N 09°23' W 079°57'0 0.1
2016-Dec-01 14:31N 09°23' W 079°57'0 0.0
2016-Dec-01 13:28N 09°23' W 079°57'0 0.0
2016-Dec-01 12:22N 09°23' W 079°57'0 0.0
2016-Dec-01 11:28N 09°23' W 079°57'0 0.0
2016-Dec-01 10:28N 09°23' W 079°57'5 4.6
2016-Dec-01 09:21N 09°28' W 079°55'  
2016-Nov-26 16:33N 29°21' W 094°45'1211.5
2016-Nov-26 15:33N 29°30' W 094°52'10 9.8
2016-Nov-26 14:33N 29°39' W 094°58'7 7.2
2016-Nov-26 13:33N 29°44' W 095°03'  
2016-Nov-24 03:27N 29°44' W 095°08'4 3.8
2016-Nov-24 02:32N 29°45' W 095°04'7 7.6
2016-Nov-24 01:33N 29°39' W 094°58'1110.9
2016-Nov-24 00:33N 29°29' W 094°52'19 4.2
2016-Nov-23 20:07N 29°20' W 094°33'17 1.0
2016-Nov-23 03:33N 29°27' W 094°51'1212.1
2016-Nov-23 02:33N 29°37' W 094°58'8 4.1
2016-Nov-23 00:33N 29°44' W 095°03'0 0.0
2016-Nov-22 23:33N 29°44' W 095°03'0 0.0
2016-Nov-22 22:21N 29°44' W 095°03'0 0.0
2016-Nov-22 20:24N 29°44' W 095°03'0 0.0
2016-Nov-22 19:33N 29°44' W 095°03'  

Dump ship's entire track history